Flight Track Log - Related Links

Times and Time Zones

All times are in EDT time to prevent confusion due to time zone crossing. See the SWA1633 flight status page for this flight to view local times or setup timezone preferences in your user account.

Time Position Orientation Groundspeed Altitude Reporting Facility
EDT Latitude Longitude Course Direction KTS MPH feet Rate Location/Type
Tue 10:38:48 PM 33.9350 -118.5375 262° West 230 265 3,300  Level Los Angeles Center
Tue 10:39:50 PM 33.9064 -118.6175 247° West 246 283 7,400 3,073 Climbing Los Angeles Center
Tue 10:40:51 PM 33.8819 -118.5575 116° Southeast 254 292 9,600 1,659 Climbing Los Angeles Center
Tue 10:41:53 PM 33.9222 -118.4631 63° Northeast 319 367 10,800 1,984 Climbing Los Angeles Center
Tue 10:42:55 PM 33.9733 -118.3622 59° Northeast 349 402 13,700 2,565 Climbing Los Angeles Center
Tue 10:43:00 PM 34.3069 -117.7529 59° Northeast  Level FlightAware Approximate
Tue 10:43:57 PM 34.0314 -118.2611 55° Northeast 361 415 16,100  Level Los Angeles Center
Tue 10:44:58 PM 34.0919 -118.1536 56° Northeast 378 435 18,400 2,195 Climbing Los Angeles Center
Tue 10:46:00 PM 34.1531 -118.0444 56° Northeast 387 445 20,600 1,887 Climbing Los Angeles Center
Tue 10:47:02 PM 34.2164 -117.9317 56° Northeast 402 463 22,300 1,902 Climbing Los Angeles Center
Tue 10:48:03 PM 34.2950 -117.7919 56° Northeast 415 478 24,500 1,805 Climbing Los Angeles Center
Tue 10:49:05 PM 34.3614 -117.6719 56° Northeast 425 489 26,000 1,016 Climbing Los Angeles Center
Tue 10:50:07 PM 34.4211 -117.5647 56° Northeast 441 507 26,600 1,065 Climbing Los Angeles Center
Tue 10:51:09 PM 34.5069 -117.4081 56° Northeast 465 535 28,200 1,512 Climbing Los Angeles Center
Tue 10:52:10 PM 34.5786 -117.2789 56° Northeast 466 536 29,700 1,366 Climbing Los Angeles Center
Tue 10:53:12 PM 34.6494 -117.1483 57° Northeast 465 535 31,000 1,366 Climbing Los Angeles Center
Tue 10:54:13 PM 34.7194 -117.0208 56° Northeast 463 533 32,500 1,171 Climbing Los Angeles Center
Tue 10:55:15 PM 34.7883 -116.8939 57° Northeast 458 527 33,400 871 Climbing Los Angeles Center
Tue 10:56:17 PM 34.8589 -116.7642 56° Northeast 458 527 34,300 1,065 Climbing Los Angeles Center
Tue 10:57:19 PM 34.9433 -116.6078 57° Northeast 459 528 35,600 1,122 Climbing Los Angeles Center
Tue 10:58:20 PM 35.0275 -116.4922 48° Northeast 459 528 36,600 683 Climbing Los Angeles Center
Tue 10:59:22 PM 35.1142 -116.3842 46° Northeast 452 520 37,000 194 Climbing Los Angeles Center
Tue 11:00:24 PM 35.2033 -116.2739 45° Northeast 454 522 37,000  Level Los Angeles Center
Tue 11:01:25 PM 35.2900 -116.1622 46° Northeast 455 524 37,000  Level Los Angeles Center
Tue 11:02:27 PM 35.3781 -116.0511 46° Northeast 455 524 37,000  Level Los Angeles Center
Tue 11:03:29 PM 35.4858 -115.9197 45° Northeast 454 522 37,000  Level Los Angeles Center
Tue 11:04:30 PM 35.5692 -115.8142 46° Northeast 453 521 37,000  Level Los Angeles Center
Tue 11:05:32 PM 35.6567 -115.7019 46° Northeast 453 521 37,000  Level Los Angeles Center
Tue 11:06:34 PM 35.7439 -115.5914 46° Northeast 452 520 37,000  Level Los Angeles Center
Tue 11:07:35 PM 35.8483 -115.4569 46° Northeast 453 521 37,000  Level Los Angeles Center
Tue 11:08:37 PM 35.9353 -115.3447 46° Northeast 454 522 37,000  Level Los Angeles Center
Tue 11:09:39 PM 36.0219 -115.2339 46° Northeast 454 522 37,000  Level Los Angeles Center
Tue 11:10:41 PM 36.0953 -115.1089 54° Northeast 458 527 37,000  Level Los Angeles Center
Tue 11:11:42 PM 36.1408 -114.9622 69° East 458 527 37,000  Level Los Angeles Center
Tue 11:12:44 PM 36.1853 -114.8142 70° East 459 528 37,000  Level Los Angeles Center
Tue 11:13:46 PM 36.2397 -114.6333 69° East 464 534 37,000  Level Los Angeles Center
Tue 11:14:48 PM 36.2861 -114.4836 69° East 465 535 37,000  Level Los Angeles Center
Tue 11:15:49 PM 36.3325 -114.3322 69° East 468 539 37,000  Level Los Angeles Center
Tue 11:16:51 PM 36.3764 -114.1797 70° East 468 539 37,000  Level Los Angeles Center
Tue 11:17:53 PM 36.4233 -114.0275 69° East 469 540 37,000  Level Los Angeles Center
Tue 11:18:55 PM 36.4689 -113.8756 70° East 469 540 37,000  Level Los Angeles Center
Tue 11:19:56 PM 36.5178 -113.7142 69° East 469 540 37,000  Level Los Angeles Center
Tue 11:20:58 PM 36.5617 -113.5603 70° East 470 541 37,000  Level Los Angeles Center
Tue 11:22:00 PM 36.6067 -113.4072 70° East 471 542 37,000  Level Los Angeles Center
Tue 11:23:02 PM 36.6603 -113.2242 70° East 471 542 37,000  Level Los Angeles Center
Tue 11:24:04 PM 36.7036 -113.0708 71° East 471 542 37,000  Level Los Angeles Center
Tue 11:25:06 PM 36.7308 -112.9117 78° East 473 544 37,000  Level Los Angeles Center
Tue 11:26:08 PM 36.7575 -112.7508 78° East 473 544 37,000  Level Los Angeles Center
Tue 11:27:10 PM 36.7833 -112.5933 78° East 472 543 37,000  Level Los Angeles Center
Tue 11:28:11 PM 36.8092 -112.4350 78° East 471 542 37,000  Level Los Angeles Center
Tue 11:29:13 PM 36.8406 -112.2450 78° East 470 541 37,000  Level Los Angeles Center
Tue 11:30:15 PM 36.8664 -112.0875 78° East 469 540 37,000  Level Los Angeles Center
Tue 11:31:16 PM 36.8919 -111.9289 79° East 469 540 37,000  Level Los Angeles Center
Tue 11:32:18 PM 36.9158 -111.7700 79° East 469 540 37,000  Level Los Angeles Center
Tue 11:33:23 PM 36.9475 -111.5792 78° East 469 540 37,000  Level Denver Center
Tue 11:34:24 PM 36.9708 -111.4208 80° East 469 540 37,000  Level Denver Center
Tue 11:35:25 PM 36.9936 -111.2647 80° East 463 533 37,000  Level Denver Center
Tue 11:36:26 PM 37.0178 -111.1061 79° East 463 533 37,000  Level Denver Center
Tue 11:37:27 PM 37.0422 -110.9472 79° East 464 534 37,000  Level Denver Center
Tue 11:38:28 PM 37.0647 -110.7892 80° East 464 534 37,000  Level Denver Center
Tue 11:39:29 PM 37.0881 -110.6303 80° East 464 534 37,000  Level Denver Center
Tue 11:40:30 PM 37.1117 -110.4717 79° East 463 533 37,000  Level Denver Center
Tue 11:41:31 PM 37.1344 -110.3136 80° East 464 534 37,000  Level Denver Center
Tue 11:42:32 PM 37.1589 -110.1378 80° East 463 533 37,000  Level Denver Center
Tue 11:43:45 PM 37.1817 -109.9861 79° East 463 533 37,000  Level Denver Center
Tue 11:44:46 PM 37.2089 -109.7825 80° East 463 533 37,000  Level Denver Center
Tue 11:45:47 PM 37.2300 -109.6317 80° East 463 533 37,000  Level Denver Center
Tue 11:46:48 PM 37.2539 -109.4550 80° East 461 531 37,000  Level Denver Center
Tue 11:47:49 PM 37.2750 -109.3028 80° East 461 531 37,000  Level Denver Center
Tue 11:48:50 PM 37.2950 -109.1519 80° East 460 529 37,000  Level Denver Center
Tue 11:49:51 PM 37.3183 -108.9728 81° East 461 531 37,000  Level Denver Center
Tue 11:50:52 PM 37.3386 -108.8214 80° East 461 531 37,000  Level Denver Center
Tue 11:51:53 PM 37.3583 -108.6706 81° East 460 529 37,000  Level Denver Center
Tue 11:52:54 PM 37.3811 -108.4933 81° East 460 529 37,000  Level Denver Center
Tue 11:53:55 PM 37.4003 -108.3408 81° East 460 529 37,000  Level Denver Center
Tue 11:54:56 PM 37.4197 -108.1875 81° East 460 529 37,000  Level Denver Center
Tue 11:55:57 PM 37.4411 -108.0117 81° East 459 528 37,000  Level Denver Center
Tue 11:56:58 PM 37.4600 -107.8592 81° East 460 529 37,000  Level Denver Center
Tue 11:57:59 PM 37.4786 -107.7067 81° East 459 528 37,000  Level Denver Center
Tue 11:59:01 PM 37.4997 -107.5308 81° East 459 528 37,000  Level Denver Center
Wed 12:00:03 AM 37.5172 -107.3772 82° East 459 528 37,000  Level Denver Center
Wed 12:01:04 AM 37.5383 -107.1992 81° East 459 528 37,000  Level Denver Center
Wed 12:02:05 AM 37.5564 -107.0486 81° East 458 527 37,000  Level Denver Center
Wed 12:03:06 AM 37.5736 -106.8950 82° East 458 527 37,000  Level Denver Center
Wed 12:04:07 AM 37.5917 -106.7167 83° East 458 527 37,000  Level Denver Center
Wed 12:05:08 AM 37.6086 -106.5633 82° East 458 527 37,000  Level Denver Center
Wed 12:06:09 AM 37.6267 -106.4108 81° East 458 527 37,000  Level Denver Center
Wed 12:07:10 AM 37.6467 -106.2336 82° East 459 528 37,000  Level Denver Center
Wed 12:08:11 AM 37.6619 -106.0783 83° East 462 532 37,000  Level Denver Center
Wed 12:09:12 AM 37.6781 -105.9269 82° East 461 531 37,000  Level Denver Center
Wed 12:10:13 AM 37.6975 -105.7486 82° East 459 528 37,000  Level Denver Center
Wed 12:11:14 AM 37.7125 -105.5967 83° East 459 528 37,000  Level Denver Center
Wed 12:12:15 AM 37.7283 -105.4439 82° East 459 528 37,000  Level Denver Center
Wed 12:13:16 AM 37.7472 -105.2644 82° East 459 528 37,000  Level Denver Center
Wed 12:14:16 AM 37.7628 -105.1114 83° East 459 528 37,000  Level Denver Center
Wed 12:15:17 AM 37.7783 -104.9314 84° East 459 528 37,000  Level Denver Center
Wed 12:16:18 AM 37.7939 -104.7764 83° East 461 531 37,000  Level Denver Center
Wed 12:17:19 AM 37.8089 -104.6203 83° East 463 533 37,000  Level Denver Center
Wed 12:18:20 AM 37.8228 -104.4658 83° East 463 533 37,000  Level Denver Center
Wed 12:19:21 AM 37.8386 -104.2833 84° East 463 533 37,000  Level Denver Center
Wed 12:20:22 AM 37.8531 -104.1286 83° East 463 533 37,000  Level Denver Center
Wed 12:21:23 AM 37.8669 -103.9744 83° East 462 532 37,000  Level Denver Center
Wed 12:22:24 AM 37.8819 -103.7953 84° East 458 527 37,000  Level Denver Center
Wed 12:23:24 AM 37.8950 -103.6425 84° East 457 526 37,000  Level Denver Center
Wed 12:24:25 AM 37.9081 -103.4900 84° East 456 525 37,000  Level Denver Center
Wed 12:25:26 AM 37.9233 -103.3122 84° East 454 522 37,000  Level Denver Center
Wed 12:26:27 AM 37.9358 -103.1603 84° East 454 522 37,000  Level Denver Center
Wed 12:27:28 AM 37.9456 -103.0075 85° East 454 522 37,000  Level Denver Center
Wed 12:28:28 AM 37.9617 -102.8300 83° East 455 524 37,000  Level Denver Center
Wed 12:29:29 AM 37.9739 -102.6767 84° East 455 524 37,000  Level Denver Center
Wed 12:30:30 AM 37.9847 -102.5239 85° East 456 525 37,000  Level Denver Center
Wed 12:31:31 AM 37.9969 -102.3522 85° East 455 524 37,000  Level Denver Center
Wed 12:32:31 AM 38.0081 -102.2019 85° East 450 518 37,000  Level Denver Center
Wed 12:33:32 AM 38.0200 -102.0533 84° East 448 516 37,000  Level Denver Center
Wed 12:34:33 AM 38.0311 -101.8814 85° East 443 510 37,000  Level Denver Center
Wed 12:35:27 AM 38.0397 -101.7564 85° East 442 509 37,000  Level Kansas City Center
Wed 12:36:28 AM 38.0508 -101.5856 85° East 440 506 37,000  Level Kansas City Center
Wed 12:37:28 AM 38.0625 -101.4367 84° East 441 507 37,000  Level Kansas City Center
Wed 12:38:29 AM 38.0719 -101.2906 85° East 439 505 37,000  Level Kansas City Center
Wed 12:39:29 AM 38.0822 -101.1194 86° East 437 503 37,000  Level Kansas City Center
Wed 12:40:30 AM 38.0914 -100.9719 85° East 437 503 37,000  Level Kansas City Center
Wed 12:41:30 AM 38.1011 -100.8242 85° East 437 503 37,000  Level Kansas City Center
Wed 12:42:31 AM 38.1097 -100.6756 86° East 437 503 37,000  Level Kansas City Center
Wed 12:43:31 AM 38.1436 -100.5125 75° East 432 497 37,000  Level Kansas City Center
Wed 12:44:32 AM 38.1747 -100.3750 74° East 425 489 37,000  Level Kansas City Center
Wed 12:45:32 AM 38.2056 -100.2353 74° East 425 489 37,000  Level Kansas City Center
Wed 12:46:33 AM 38.2417 -100.0742 74° East 425 489 37,000  Level Kansas City Center
Wed 12:47:33 AM 38.2703 -99.9369 75° East 423 487 37,000  Level Kansas City Center
Wed 12:48:33 AM 38.3003 -99.7989 74° East 423 487 37,000  Level Kansas City Center
Wed 12:49:34 AM 38.3311 -99.6619 74° East 422 486 37,000  Level Kansas City Center
Wed 12:50:34 AM 38.3656 -99.5028 75° East 422 486 37,000  Level Kansas City Center
Wed 12:51:35 AM 38.3906 -99.3825 75° East 422 486 37,000  Level Kansas City Center
Wed 12:52:35 AM 38.4236 -99.2372 74° East 422 486 37,000  Level Kansas City Center
Wed 12:53:36 AM 38.4542 -99.0897 75° East 428 493 37,000  Level Kansas City Center
Wed 12:54:36 AM 38.4917 -98.9106 75° East 431 496 37,000  Level Kansas City Center
Wed 12:55:36 AM 38.5247 -98.7583 74° East 441 507 37,000  Level Kansas City Center
Wed 12:56:37 AM 38.5558 -98.6067 75° East 441 507 37,000  Level Kansas City Center
Wed 12:57:37 AM 38.5878 -98.4536 75° East 442 509 37,000  Level Kansas City Center
Wed 12:58:38 AM 38.6186 -98.3006 75° East 442 509 37,000  Level Kansas City Center
Wed 12:59:38 AM 38.6508 -98.1467 75° East 443 510 37,000  Level Kansas City Center
Wed 01:00:39 AM 38.6819 -97.9925 75° East 446 513 37,000  Level Kansas City Center
Wed 01:01:39 AM 38.7125 -97.8375 76° East 446 513 37,000  Level Kansas City Center
Wed 01:02:39 AM 38.7425 -97.6836 76° East 446 513 37,000  Level Kansas City Center
Wed 01:03:40 AM 38.7736 -97.5294 75° East 446 513 37,000  Level Kansas City Center
Wed 01:04:40 AM 38.8036 -97.3769 76° East 444 511 37,000  Level Kansas City Center
Wed 01:05:40 AM 38.8325 -97.2236 76° East 443 510 37,000  Level Kansas City Center
Wed 01:06:41 AM 38.8631 -97.0722 75° East 442 509 37,000 -496 Level Kansas City Center
Wed 01:07:41 AM 38.8914 -96.9206 76° East 440 506 36,000 -1,000 Descending Kansas City Center
Wed 01:08:41 AM 38.9172 -96.7658 78° East 441 507 35,000 -1,041 Descending Kansas City Center
Wed 01:09:42 AM 38.9389 -96.6094 80° East 443 510 33,900 -2,231 Descending Kansas City Center
Wed 01:10:42 AM 38.9625 -96.4497 79° East 451 519 30,500 -3,150 Descending Kansas City Center
Wed 01:11:42 AM 38.9858 -96.2919 79° East 450 518 27,600 -2,826 Descending Kansas City Center
Wed 01:12:43 AM 39.0075 -96.1372 80° East 427 491 24,800 -2,678 Descending Kansas City Center
Wed 01:13:43 AM 39.0286 -95.9897 80° East 407 468 22,200 -2,450 Descending Kansas City Center
Wed 01:14:43 AM 39.0467 -95.8608 80° East 385 443 19,900 -2,182 Descending Kansas City Center
Wed 01:15:44 AM 39.0650 -95.7308 80° East 371 427 17,800 -2,231 Descending Kansas City Center
Wed 01:16:44 AM 39.0811 -95.6061 81° East 360 414 15,400 -2,300 Descending Kansas City Center
Wed 01:17:44 AM 39.0981 -95.4853 80° East 346 398 13,200 -2,200 Descending Kansas City Center
Wed 01:18:44 AM 39.1136 -95.3703 80° East 333 383 11,000 -1,537 Descending Kansas City Center
Wed 01:19:45 AM 39.1281 -95.2639 80° East 295 339 10,100 -1,190 Descending Kansas City Center
Wed 01:20:45 AM 39.1417 -95.1633 80° East 265 305 8,600 -1,400 Descending Kansas City Center
Wed 01:21:45 AM 39.1550 -95.0664 80° East 276 318 7,300 -1,339 Descending Kansas City Center
Wed 01:22:46 AM 39.1736 -94.9742 75° East 269 310 5,900 -1,240 Descending Kansas City Center
Wed 01:23:46 AM 39.1892 -94.8894 77° East 246 283 4,800 -1,150 Descending Kansas City Center
Wed 01:24:46 AM 39.2036 -94.8158 76° East 218 251 3,600 -1,200 Descending Kansas City Center
Wed 01:25:46 AM 39.2258 -94.7594 63° Northeast 187 215 2,400 -893 Descending Kansas City Center
Wed 01:26:47 AM 39.2589 -94.7397 25° Northeast 135 155 1,800 -645 Descending Kansas City Center
Wed 01:27:47 AM 39.2942 -94.7289 13° North 130 150 1,100 -700 Descending Kansas City Center
Wed 01:29:00 AM 39.2976 -94.7139 90° East  Level Estimated
Wed 01:36:00 AM 39.2976 -94.7139 90° East  Level Estimated

Login

Don't have an account? Register now (free) for customized features, flight alerts, and more!